createdAt,value
2019-05-28T00:01:03.717Z,53.90
2019-05-28T00:03:32.306Z,54.40
2019-05-28T00:06:00.873Z,53.40
2019-05-28T00:08:29.627Z,53.50
2019-05-28T00:10:58.127Z,53.90
2019-05-28T00:13:26.572Z,54.10
2019-05-28T00:15:55.114Z,53.80
2019-05-28T00:18:23.682Z,54.20
2019-05-28T00:20:52.199Z,54.50
2019-05-28T00:23:20.699Z,54.70
2019-05-28T00:25:49.352Z,54.50
2019-05-28T00:28:17.867Z,54.60
2019-05-28T00:30:46.341Z,54.60
2019-05-28T00:33:14.922Z,54.20
2019-05-28T00:35:43.384Z,54.80
2019-05-28T00:38:11.869Z,54.80
2019-05-28T00:40:40.398Z,54.40
2019-05-28T00:43:08.947Z,54.60
2019-05-28T00:45:37.463Z,54.50
2019-05-28T00:48:05.912Z,55.10
2019-05-28T00:50:34.429Z,54.90
2019-05-28T00:53:02.886Z,55.10
2019-05-28T00:55:31.351Z,56.00
2019-05-28T00:57:59.983Z,55.30
2019-05-28T01:00:48.738Z,55.30
2019-05-28T01:03:17.574Z,55.60
2019-05-28T01:05:46.136Z,55.10
2019-05-28T01:08:16.505Z,55.50
2019-05-28T01:10:45.325Z,55.30
2019-05-28T01:13:13.894Z,55.80
2019-05-28T01:15:42.439Z,55.70
2019-05-28T01:18:10.953Z,55.70
2019-05-28T01:20:39.401Z,55.60
2019-05-28T01:23:07.874Z,55.80
2019-05-28T01:25:36.478Z,55.90
2019-05-28T01:28:04.894Z,55.40
2019-05-28T01:30:33.474Z,55.60
2019-05-28T01:33:02.092Z,55.50
2019-05-28T01:35:50.076Z,55.70
2019-05-28T01:38:18.553Z,55.80
2019-05-28T01:40:47.049Z,56.40
2019-05-28T01:43:15.623Z,56.10
2019-05-28T01:45:44.157Z,56.10
2019-05-28T01:48:12.674Z,55.80
2019-05-28T01:50:41.131Z,56.00
2019-05-28T01:53:09.735Z,56.80
2019-05-28T01:55:39.331Z,56.40
2019-05-28T01:58:07.897Z,56.50
2019-05-28T02:00:36.449Z,56.50
2019-05-28T02:03:04.920Z,57.20
2019-05-28T02:05:33.456Z,56.90
2019-05-28T02:08:02.035Z,56.90
2019-05-28T02:10:30.624Z,56.90
2019-05-28T02:12:59.104Z,56.90
2019-05-28T02:15:27.577Z,56.80
2019-05-28T02:17:56.046Z,56.50
2019-05-28T02:20:24.674Z,56.60
2019-05-28T02:22:53.207Z,56.50
2019-05-28T02:25:21.792Z,56.90
2019-05-28T02:27:50.286Z,56.80
2019-05-28T02:30:20.096Z,56.80
2019-05-28T02:32:48.570Z,56.70
2019-05-28T02:35:18.640Z,56.70
2019-05-28T02:37:47.070Z,56.80
2019-05-28T02:40:15.594Z,57.50
2019-05-28T02:42:44.282Z,57.00
2019-05-28T02:45:12.970Z,57.30
2019-05-28T02:47:41.601Z,57.50
2019-05-28T02:50:10.136Z,57.40
2019-05-28T02:52:39.144Z,57.20
2019-05-28T02:55:07.988Z,57.80
2019-05-28T02:57:37.370Z,58.30
2019-05-28T03:00:08.281Z,57.80
2019-05-28T03:02:36.958Z,58.60
2019-05-28T03:05:05.946Z,58.70
2019-05-28T03:07:35.045Z,58.30
2019-05-28T03:10:04.824Z,58.10
2019-05-28T03:12:33.409Z,58.80
2019-05-28T03:15:01.895Z,58.10
2019-05-28T03:17:30.478Z,58.60
2019-05-28T03:19:59.627Z,58.40
2019-05-28T03:22:28.244Z,58.30
2019-05-28T03:24:56.725Z,58.30
2019-05-28T03:27:25.167Z,57.90
2019-05-28T03:29:53.713Z,58.40
2019-05-28T03:32:22.318Z,58.20
2019-05-28T03:34:50.866Z,58.20
2019-05-28T03:37:19.509Z,58.20
2019-05-28T03:39:48.155Z,58.00
2019-05-28T03:42:16.571Z,58.00
2019-05-28T03:44:45.080Z,58.30
2019-05-28T03:47:13.691Z,58.50
2019-05-28T03:49:42.126Z,57.90
2019-05-28T03:52:10.650Z,58.30
2019-05-28T03:54:39.154Z,58.40
2019-05-28T03:57:07.590Z,58.30
2019-05-28T03:59:36.131Z,58.40
2019-05-28T04:02:04.627Z,58.30
2019-05-28T04:04:33.233Z,58.10
2019-05-28T04:07:01.716Z,58.30
2019-05-28T04:09:33.748Z,58.30
2019-05-28T04:12:00.398Z,58.50
2019-05-28T04:14:28.995Z,58.90
2019-05-28T04:16:57.545Z,58.70
2019-05-28T04:19:26.170Z,58.40
2019-05-28T04:21:54.702Z,59.00
2019-05-28T04:24:23.198Z,58.40
2019-05-28T04:26:51.666Z,59.00
2019-05-28T04:29:20.379Z,59.30
2019-05-28T04:31:48.883Z,59.50
2019-05-28T04:34:17.408Z,58.90
2019-05-28T04:36:45.967Z,59.50
2019-05-28T04:39:14.451Z,59.90
2019-05-28T04:41:43.027Z,59.30
2019-05-28T04:44:11.510Z,59.40
2019-05-28T04:46:40.000Z,59.30
2019-05-28T04:49:08.587Z,59.50
2019-05-28T04:51:37.061Z,59.50
2019-05-28T04:54:05.548Z,59.50
2019-05-28T04:56:34.053Z,59.20
2019-05-28T04:59:03.977Z,59.40
2019-05-28T05:01:32.700Z,59.30
2019-05-28T05:04:01.399Z,60.10
2019-05-28T05:06:29.812Z,59.50
2019-05-28T05:08:58.257Z,59.70
2019-05-28T05:11:26.826Z,59.50
2019-05-28T05:13:55.254Z,59.50
2019-05-28T05:16:23.734Z,59.50
2019-05-28T05:18:52.218Z,60.00
2019-05-28T05:21:20.916Z,60.00
2019-05-28T05:23:49.546Z,59.80
2019-05-28T05:26:17.986Z,60.40
2019-05-28T05:28:46.437Z,59.50
2019-05-28T05:31:14.985Z,59.50
2019-05-28T05:33:43.497Z,59.50
2019-05-28T05:36:11.978Z,59.60
2019-05-28T05:38:40.474Z,59.90
2019-05-28T05:41:08.925Z,60.20
2019-05-28T05:43:37.415Z,60.00
2019-05-28T05:46:25.324Z,59.70
2019-05-28T05:48:53.884Z,60.00
2019-05-28T05:51:22.611Z,59.90
2019-05-28T05:53:51.138Z,60.10
2019-05-28T05:56:19.690Z,60.50
2019-05-28T05:58:48.228Z,60.80
2019-05-28T06:01:16.851Z,60.20
2019-05-28T06:03:45.274Z,60.50
2019-05-28T06:06:13.875Z,60.40
2019-05-28T06:08:42.325Z,60.70
2019-05-28T06:11:10.775Z,61.20
2019-05-28T06:13:39.275Z,60.30
2019-05-28T06:16:07.706Z,59.90
2019-05-28T06:18:36.151Z,60.00
2019-05-28T06:21:11.720Z,59.70
2019-05-28T06:23:34.897Z,59.70
2019-05-28T06:26:03.387Z,60.60
2019-05-28T06:28:31.928Z,59.90
2019-05-28T06:31:00.407Z,60.10
2019-05-28T06:33:28.890Z,60.20
2019-05-28T06:35:57.476Z,59.90
2019-05-28T06:38:26.819Z,60.00
2019-05-28T06:40:55.307Z,61.10
2019-05-28T06:43:23.847Z,61.80
2019-05-28T06:45:52.380Z,62.30
2019-05-28T06:48:20.902Z,61.70
2019-05-28T06:50:49.335Z,62.00
2019-05-28T06:53:17.880Z,61.90
2019-05-28T06:55:46.376Z,62.10
2019-05-28T06:58:14.973Z,62.00
2019-05-28T07:00:43.604Z,62.40
2019-05-28T07:03:12.111Z,63.40
2019-05-28T07:05:40.698Z,62.30
2019-05-28T07:08:09.315Z,62.10
2019-05-28T07:10:37.796Z,62.00
2019-05-28T07:13:06.355Z,61.90
2019-05-28T07:15:34.837Z,62.40
2019-05-28T07:18:03.385Z,63.10
2019-05-28T07:20:31.819Z,63.20
2019-05-28T07:23:00.367Z,63.10
2019-05-28T07:25:28.970Z,64.70
2019-05-28T07:28:10.419Z,64.10
2019-05-28T07:30:27.834Z,64.70
2019-05-28T07:32:56.514Z,64.80
2019-05-28T07:35:25.062Z,64.50
2019-05-28T07:37:53.582Z,64.90
2019-05-28T07:40:31.738Z,65.40
2019-05-28T07:42:52.742Z,66.60
2019-05-28T07:45:21.252Z,68.30
2019-05-28T07:47:49.777Z,69.60
2019-05-28T07:50:18.546Z,69.80
2019-05-28T07:52:47.031Z,71.70
2019-05-28T07:55:15.620Z,72.60
2019-05-28T07:57:44.261Z,73.80
2019-05-28T08:00:15.982Z,75.10
2019-05-28T08:02:44.686Z,75.30
2019-05-28T08:05:17.167Z,77.30
2019-05-28T08:07:43.333Z,78.40
2019-05-28T08:10:11.899Z,78.80
2019-05-28T08:12:40.504Z,79.10
2019-05-28T08:15:09.071Z,78.90
2019-05-28T08:17:37.852Z,78.60
2019-05-28T08:20:06.323Z,80.60
2019-05-28T08:22:42.194Z,79.80
2019-05-28T08:25:45.577Z,80.80
2019-05-28T08:27:54.557Z,79.50
2019-05-28T08:30:23.134Z,79.10
2019-05-28T08:32:51.664Z,80.40
2019-05-28T08:35:20.191Z,80.40
2019-05-28T08:37:48.744Z,81.50
2019-05-28T08:40:17.466Z,80.60
2019-05-28T08:42:46.056Z,82.40
2019-05-28T08:45:15.011Z,81.80
2019-05-28T08:47:43.471Z,83.20
2019-05-28T08:50:11.897Z,82.60
2019-05-28T08:52:40.476Z,82.30
2019-05-28T08:55:08.974Z,81.70
2019-05-28T08:57:37.999Z,82.00
2019-05-28T09:00:08.913Z,83.60
2019-05-28T09:02:37.388Z,82.80
2019-05-28T09:05:24.589Z,83.40
2019-05-28T09:07:36.665Z,83.90
2019-05-28T09:10:07.023Z,84.20
2019-05-28T09:12:35.532Z,85.10
2019-05-28T09:15:06.111Z,84.90
2019-05-28T09:17:34.722Z,85.40
2019-05-28T09:20:04.219Z,84.00
2019-05-28T09:22:32.663Z,84.60
2019-05-28T09:25:01.443Z,84.40
2019-05-28T09:27:29.951Z,85.20
2019-05-28T09:29:58.605Z,86.00
2019-05-28T09:32:27.090Z,86.50
2019-05-28T09:34:55.692Z,87.40
2019-05-28T09:37:24.224Z,85.40
2019-05-28T09:39:52.716Z,85.90
2019-05-28T09:42:21.314Z,86.30
2019-05-28T09:44:49.826Z,85.70
2019-05-28T09:47:18.402Z,85.40
2019-05-28T09:49:47.032Z,85.40
2019-05-28T09:52:15.531Z,85.10
2019-05-28T09:54:44.043Z,84.10
2019-05-28T09:57:12.538Z,83.90
2019-05-28T09:59:42.140Z,84.80
2019-05-28T10:02:10.931Z,85.10
2019-05-28T10:04:49.368Z,85.00
2019-05-28T10:07:09.684Z,84.70
2019-05-28T10:09:38.259Z,85.50
2019-05-28T10:12:06.804Z,84.40
2019-05-28T10:14:35.398Z,85.40
2019-05-28T10:17:04.084Z,86.00
2019-05-28T10:19:32.711Z,86.90
2019-05-28T10:22:01.291Z,87.10
2019-05-28T10:24:29.787Z,87.40
2019-05-28T10:26:58.234Z,87.80
2019-05-28T10:29:26.883Z,86.80
2019-05-28T10:31:55.345Z,86.40
2019-05-28T10:34:23.919Z,85.40
2019-05-28T10:36:52.460Z,85.30
2019-05-28T10:39:20.988Z,85.00
2019-05-28T10:41:49.467Z,85.20
2019-05-28T10:44:18.003Z,86.10
2019-05-28T10:46:46.536Z,86.50
2019-05-28T10:49:15.056Z,85.70
2019-05-28T10:51:43.570Z,86.20
2019-05-28T10:54:12.298Z,86.60
2019-05-28T10:56:40.912Z,87.40
2019-05-28T10:59:09.425Z,86.80
2019-05-28T11:01:38.117Z,86.20
2019-05-28T11:04:06.651Z,86.50
2019-05-28T11:06:48.848Z,85.80
2019-05-28T11:09:08.840Z,82.90
2019-05-28T11:11:37.571Z,83.60
2019-05-28T11:14:06.139Z,81.70
2019-05-28T11:16:34.567Z,83.90
2019-05-28T11:19:03.023Z,84.00
2019-05-28T11:21:31.565Z,82.80
2019-05-28T11:24:00.058Z,83.90
2019-05-28T11:26:28.613Z,83.70
2019-05-28T11:28:57.135Z,85.20
2019-05-28T11:31:25.599Z,85.70
2019-05-28T11:33:54.407Z,83.10
2019-05-28T11:36:23.043Z,79.50
2019-05-28T11:38:51.987Z,83.60
2019-05-28T11:41:20.521Z,84.20
2019-05-28T11:43:48.991Z,85.30
2019-05-28T11:46:17.538Z,83.90
2019-05-28T11:48:46.164Z,84.00
2019-05-28T11:51:14.926Z,83.60
2019-05-28T11:53:43.576Z,83.80
2019-05-28T11:56:12.015Z,83.80
2019-05-28T11:58:40.486Z,83.30
2019-05-28T12:01:09.017Z,82.40
2019-05-28T12:03:37.564Z,82.80
2019-05-28T12:06:06.050Z,81.70
2019-05-28T12:08:34.497Z,83.20
2019-05-28T12:11:03.123Z,84.30
2019-05-28T12:13:31.643Z,85.30
2019-05-28T12:16:00.208Z,85.40
2019-05-28T12:18:28.837Z,83.60
2019-05-28T12:20:57.282Z,83.20
2019-05-28T12:23:25.906Z,83.90
2019-05-28T12:25:54.421Z,82.00
2019-05-28T12:28:37.027Z,79.40
2019-05-28T12:30:53.138Z,81.00
2019-05-28T12:33:21.631Z,75.10
2019-05-28T12:35:50.170Z,77.40
2019-05-28T12:38:18.682Z,80.70
2019-05-28T12:40:48.577Z,81.40
2019-05-28T12:43:17.249Z,81.90
2019-05-28T12:45:45.794Z,82.70
2019-05-28T12:48:14.384Z,82.70
2019-05-28T12:50:42.818Z,82.40
2019-05-28T12:53:11.380Z,81.40
2019-05-28T12:55:39.919Z,82.90
2019-05-28T12:58:08.660Z,83.80
2019-05-28T13:00:37.261Z,84.30
2019-05-28T13:03:05.730Z,84.50
2019-05-28T13:05:34.194Z,84.40
2019-05-28T13:08:09.338Z,86.20
2019-05-28T13:10:32.938Z,86.20
2019-05-28T13:13:01.439Z,87.00
2019-05-28T13:15:29.929Z,87.30
2019-05-28T13:17:58.459Z,85.60
2019-05-28T13:20:27.028Z,82.80
2019-05-28T13:22:55.462Z,82.00
2019-05-28T13:25:24.037Z,80.60
2019-05-28T13:27:55.721Z,81.30
2019-05-28T13:30:24.281Z,80.80
2019-05-28T13:32:53.074Z,80.70
2019-05-28T13:35:21.847Z,82.10
2019-05-28T13:37:50.481Z,82.90
2019-05-28T13:40:18.954Z,84.00
2019-05-28T13:42:47.439Z,84.20
2019-05-28T13:45:15.924Z,85.50
2019-05-28T13:47:44.518Z,85.30
2019-05-28T13:50:13.010Z,87.00
2019-05-28T13:52:41.573Z,87.70
2019-05-28T13:55:10.498Z,87.60
2019-05-28T13:57:39.892Z,87.20
2019-05-28T14:00:10.106Z,87.50
2019-05-28T14:02:38.745Z,87.10
2019-05-28T14:05:07.676Z,87.80
2019-05-28T14:07:39.240Z,87.90
2019-05-28T14:10:08.135Z,88.40
2019-05-28T14:12:36.659Z,88.90
2019-05-28T14:15:08.437Z,88.60
2019-05-28T14:17:37.192Z,87.90
2019-05-28T14:20:06.560Z,86.70
2019-05-28T14:22:35.336Z,87.10
2019-05-28T14:25:05.437Z,86.90
2019-05-28T14:27:34.202Z,88.40
2019-05-28T14:30:02.869Z,87.20
2019-05-28T14:32:31.534Z,87.90
2019-05-28T14:35:00.128Z,87.80
2019-05-28T14:37:30.594Z,88.20
2019-05-28T14:39:59.133Z,88.70
2019-05-28T14:42:27.764Z,88.70
2019-05-28T14:44:56.380Z,89.80
2019-05-28T14:47:35.761Z,88.40
2019-05-28T14:50:07.086Z,89.30
2019-05-28T14:52:35.778Z,88.00
2019-05-28T14:55:07.916Z,87.50
2019-05-28T14:57:36.721Z,88.00
2019-05-28T15:00:08.905Z,88.10
2019-05-28T15:02:37.587Z,88.80
2019-05-28T15:05:10.101Z,88.40
2019-05-28T15:07:38.634Z,89.20
2019-05-28T15:10:07.777Z,89.00
2019-05-28T15:12:36.323Z,87.60
2019-05-28T15:15:06.833Z,86.60
2019-05-28T15:17:35.371Z,85.90
2019-05-28T15:20:06.503Z,87.00
2019-05-28T15:22:35.249Z,88.20
2019-05-28T15:25:07.617Z,87.60
2019-05-28T15:27:36.631Z,86.60
2019-05-28T15:30:10.971Z,87.50
2019-05-28T15:32:42.406Z,88.50
2019-05-28T15:35:11.370Z,88.50
2019-05-28T15:37:39.987Z,88.80
2019-05-28T15:40:08.936Z,88.80
2019-05-28T15:42:37.784Z,87.80
2019-05-28T15:45:08.172Z,87.60
2019-05-28T15:47:37.615Z,86.30
2019-05-28T15:50:07.494Z,87.80
2019-05-28T15:52:36.104Z,88.40
2019-05-28T15:55:06.189Z,87.50
2019-05-28T15:57:34.810Z,88.30
2019-05-28T16:00:04.859Z,87.80
2019-05-28T16:02:33.476Z,87.90
2019-05-28T16:05:02.061Z,87.40
2019-05-28T16:07:30.792Z,88.40
2019-05-28T16:09:59.590Z,89.30
2019-05-28T16:12:28.290Z,89.60
2019-05-28T16:14:56.747Z,89.30
2019-05-28T16:17:25.239Z,88.60
2019-05-28T16:19:55.386Z,87.60
2019-05-28T16:22:23.926Z,87.80
2019-05-28T16:24:52.423Z,86.00
2019-05-28T16:27:21.069Z,87.30
2019-05-28T16:29:49.671Z,87.20
2019-05-28T16:32:18.239Z,87.60
2019-05-28T16:34:46.752Z,87.50
2019-05-28T16:37:15.353Z,87.70
2019-05-28T16:39:47.327Z,87.90
2019-05-28T16:42:21.546Z,86.80
2019-05-28T16:44:49.994Z,86.60
2019-05-28T16:47:18.872Z,86.30
2019-05-28T16:49:47.598Z,86.70
2019-05-28T16:52:16.132Z,86.30
2019-05-28T16:54:44.767Z,85.40
2019-05-28T16:57:13.356Z,85.60
2019-05-28T16:59:41.819Z,85.50
2019-05-28T17:02:10.262Z,86.60
2019-05-28T17:04:38.912Z,87.10
2019-05-28T17:07:07.427Z,85.90
2019-05-28T17:09:35.911Z,85.90
2019-05-28T17:12:04.532Z,86.50
2019-05-28T17:14:33.023Z,86.40
2019-05-28T17:17:03.069Z,84.70
2019-05-28T17:19:31.759Z,84.60
2019-05-28T17:22:00.386Z,83.90
2019-05-28T17:24:28.848Z,84.20
2019-05-28T17:26:57.548Z,84.30
2019-05-28T17:29:28.118Z,84.70
2019-05-28T17:31:56.622Z,85.10
2019-05-28T17:34:25.063Z,85.70
2019-05-28T17:36:53.631Z,85.70
2019-05-28T17:39:24.551Z,85.70
2019-05-28T17:41:52.699Z,85.80
2019-05-28T17:44:21.626Z,86.00
2019-05-28T17:46:50.124Z,85.80
2019-05-28T17:49:19.639Z,86.30
2019-05-28T17:51:52.097Z,86.00
2019-05-28T17:54:20.561Z,85.70
2019-05-28T17:56:49.034Z,85.50
2019-05-28T17:59:17.867Z,85.60
2019-05-28T18:01:48.089Z,86.00
2019-05-28T18:04:16.621Z,86.10
2019-05-28T18:06:46.747Z,86.10
2019-05-28T18:09:15.221Z,86.00
2019-05-28T18:11:43.830Z,85.00
2019-05-28T18:14:12.462Z,85.30
2019-05-28T18:16:43.620Z,85.90
2019-05-28T18:19:12.870Z,86.00
2019-05-28T18:21:41.467Z,85.50
2019-05-28T18:24:10.122Z,85.80
2019-05-28T18:26:38.723Z,86.30
2019-05-28T18:29:07.419Z,86.80
2019-05-28T18:31:37.685Z,86.80
2019-05-28T18:34:14.975Z,86.50
2019-05-28T18:36:42.670Z,86.00
2019-05-28T18:39:11.366Z,85.40
2019-05-28T18:41:40.071Z,85.20
2019-05-28T18:44:10.850Z,84.60
2019-05-28T18:46:39.487Z,84.30
2019-05-28T18:49:25.213Z,84.40
2019-05-28T18:51:48.087Z,84.50
2019-05-28T18:54:16.634Z,84.60
2019-05-28T18:56:45.324Z,84.70
2019-05-28T18:59:13.908Z,84.90
2019-05-28T19:01:42.740Z,85.00
2019-05-28T19:04:11.425Z,85.30
2019-05-28T19:06:40.070Z,85.50
2019-05-28T19:09:11.810Z,85.70
2019-05-28T19:11:42.102Z,85.00
2019-05-28T19:14:12.547Z,84.90
2019-05-28T19:16:41.131Z,85.00
2019-05-28T19:19:11.522Z,84.50
2019-05-28T19:21:40.275Z,85.10
2019-05-28T19:24:13.922Z,85.10
2019-05-28T19:26:42.790Z,84.40
2019-05-28T19:29:11.311Z,84.60
2019-05-28T19:31:43.816Z,84.40
2019-05-28T19:34:12.151Z,84.30
2019-05-28T19:36:42.580Z,83.10
2019-05-28T19:39:11.192Z,83.80
2019-05-28T19:41:52.315Z,84.10
2019-05-28T19:44:09.989Z,84.40
2019-05-28T19:46:38.530Z,84.60
2019-05-28T19:49:09.918Z,85.00
2019-05-28T19:51:40.067Z,84.80
2019-05-28T19:54:08.750Z,84.60
2019-05-28T19:56:37.237Z,84.70
2019-05-28T19:59:06.010Z,84.30
2019-05-28T20:01:36.147Z,84.20
2019-05-28T20:04:06.373Z,84.40
2019-05-28T20:06:35.045Z,84.60
2019-05-28T20:09:05.370Z,84.30
2019-05-28T20:11:34.065Z,84.20
2019-05-28T20:14:05.744Z,84.10
2019-05-28T20:16:34.390Z,84.10
2019-05-28T20:19:04.675Z,84.40
2019-05-28T20:21:35.221Z,84.60
2019-05-28T20:24:03.471Z,84.70
2019-05-28T20:26:32.055Z,84.70
2019-05-28T20:29:08.274Z,84.80
2019-05-28T20:31:36.049Z,84.20
2019-05-28T20:34:05.308Z,84.30
2019-05-28T20:36:34.038Z,84.30
2019-05-28T20:39:03.850Z,84.20
2019-05-28T20:41:32.390Z,84.20
2019-05-28T20:44:00.914Z,84.00
2019-05-28T20:46:29.518Z,84.00
2019-05-28T20:48:57.950Z,83.80
2019-05-28T20:51:26.594Z,83.90
2019-05-28T20:53:55.146Z,83.30
2019-05-28T20:56:23.740Z,83.50
2019-05-28T20:58:52.446Z,83.80
2019-05-28T21:01:27.859Z,83.60
2019-05-28T21:06:32.220Z,83.60
2019-05-28T21:09:00.686Z,83.50
2019-05-28T21:11:29.392Z,83.70
2019-05-28T21:13:58.827Z,83.60
2019-05-28T21:16:27.634Z,83.50
2019-05-28T21:18:57.266Z,84.10
2019-05-28T21:21:25.949Z,84.20
2019-05-28T21:23:54.410Z,83.80
2019-05-28T21:26:23.045Z,83.50
2019-05-28T21:28:52.098Z,83.80
2019-05-28T21:31:20.856Z,84.10
2019-05-28T21:33:50.619Z,83.60
2019-05-28T21:36:19.357Z,83.70
2019-05-28T21:38:47.889Z,83.80
2019-05-28T21:41:16.518Z,84.00
2019-05-28T21:43:45.001Z,83.50
2019-05-28T21:46:17.807Z,83.40
2019-05-28T21:48:46.739Z,83.50
2019-05-28T21:51:15.376Z,83.50
2019-05-28T21:53:44.085Z,83.20
2019-05-28T21:56:12.630Z,83.40
2019-05-28T21:58:43.926Z,83.50
2019-05-28T22:01:18.207Z,83.50
2019-05-28T22:03:48.447Z,83.90
2019-05-28T22:06:16.957Z,83.60
2019-05-28T22:08:45.743Z,83.60
2019-05-28T22:11:14.334Z,83.70
2019-05-28T22:13:42.869Z,83.40
2019-05-28T22:16:11.443Z,83.30
2019-05-28T22:18:39.954Z,83.00
2019-05-28T22:21:08.587Z,83.20
2019-05-28T22:23:37.224Z,83.40
2019-05-28T22:26:05.707Z,83.40
2019-05-28T22:28:34.230Z,83.10
2019-05-28T22:31:03.840Z,83.10
2019-05-28T22:33:33.108Z,82.90
2019-05-28T22:36:01.738Z,82.70
2019-05-28T22:38:30.271Z,83.20
2019-05-28T22:40:58.857Z,83.30
2019-05-28T22:43:31.728Z,83.50
2019-05-28T22:45:57.562Z,83.20
2019-05-28T22:48:26.139Z,83.60
2019-05-28T22:50:54.854Z,83.30
2019-05-28T22:53:23.617Z,82.90
2019-05-28T22:55:52.199Z,83.20
2019-05-28T22:58:20.813Z,82.50
2019-05-28T23:00:49.491Z,82.90
2019-05-28T23:03:18.003Z,82.80
2019-05-28T23:05:46.455Z,83.10
2019-05-28T23:08:14.923Z,83.10
2019-05-28T23:10:43.491Z,82.90
2019-05-28T23:13:12.029Z,82.60
2019-05-28T23:15:40.527Z,82.80
2019-05-28T23:18:09.425Z,82.60
2019-05-28T23:20:39.312Z,82.10
2019-05-28T23:23:07.774Z,81.40
2019-05-28T23:25:36.290Z,81.60
2019-05-28T23:28:05.543Z,81.60
2019-05-28T23:30:34.321Z,81.80
2019-05-28T23:33:04.215Z,81.30
2019-05-28T23:35:33.051Z,81.40
2019-05-28T23:38:02.635Z,81.20
2019-05-28T23:40:31.387Z,81.10
2019-05-28T23:43:00.049Z,80.90
2019-05-28T23:45:28.529Z,81.00
2019-05-28T23:47:57.210Z,81.20
2019-05-28T23:50:25.786Z,80.70
2019-05-28T23:52:54.293Z,81.10
2019-05-28T23:55:22.857Z,81.10
2019-05-28T23:57:51.387Z,80.60
